メインページ
METAR-TAF:

METAR-TAF

空港 :

カイロ, エジプト

カイロ国際空港

緯度: 30-08N, 経度: 031-24E, 海抜: 64m

現時点の気象観測

当レポートは32分前の11:30(UTC)に作成
の風 11kt
気温 24°C
湿度 34%
気圧 1017 hPa
視程10km以上
1,500メートル以下は雲なし、積乱雲なし

METAR: HECA 231130Z 35011KT CAVOK 24/07 Q1017 NOSIG

時間: 14:02 (12:02 UTC)

予報

当レポートは7時間2分前の05:00(UTC)に作成
予報は23日の 06時(UTC)から 24日の 12時(UTC)まで有効
北/北西の風 13kt、最大23ktの突風を伴う
視程10km以上
1,500メートル以下は雲なし、積乱雲なし
23日の 08時(UTC)から 23日の 10時(UTC)まで徐々に
の風 10kt、最大20ktの突風を伴う
視程10km以上
高度2500ftの雲は散在している
23日の 08時(UTC)から 23日の 12時(UTC)まで一時的に
視程: 6000m

TAF: HECA 230500Z 2306/2412 33013G23KT CAVOK BECMG 2308/2310 01010G20KT 9999 SCT025 TEMPO 2308/2312 6000

4,000以上の空港の気象観測と天気予報(METAR報とTAF報)

利用可能な観測所は地図上に黄色い丸と赤い丸で示す。

丸の上にカーソルを重ねると観測所名を参照できる。

次にクリックすると気象観測と天気予報を参照できる。

マップの切り替え:黒色「×」印の緑ボタンをクリックして拡大、「-」印の緑ボタンをクリックして縮小、緑色の三角印をクリックして隣りの地図に切り替え


METAR-TAF: